Time;durP1;ratioP1;P1;durP2;ratioP2;P2;SDS_P1;SDS_P2;PMS_P1;PMS_P2;Temp;Humidity;BMP_temperature;BMP_pressure;BME280_temperature;BME280_humidity;BME280_pressure;Samples;Min_cycle;Max_cycle;Signal;HPM_P1;HPM_P2
2021/11/10 00:01:17;;;;;;;55.40;25.70;;;;;;;2.55;86.29;100445.46;2209886;81;21602;-65
2021/11/10 00:04:18;;;;;;;53.25;25.10;;;;;;;2.54;86.74;100440.72;2210169;81;21053;-65
2021/11/10 00:07:20;;;;;;;51.88;24.98;;;;;;;2.53;86.98;100441.58;2210160;81;21543;-65
2021/11/10 00:10:21;;;;;;;50.92;24.70;;;;;;;2.53;86.95;100445.47;2210287;81;21071;-65
2021/11/10 00:13:23;;;;;;;53.00;24.47;;;;;;;2.56;86.63;100444.16;2210113;81;21064;-65
2021/11/10 00:16:24;;;;;;;50.77;25.53;;;;;;;2.58;87.31;100420.84;2210527;81;21095;-65
2021/11/10 00:19:26;;;;;;;49.27;24.57;;;;;;;2.58;87.31;100420.84;2214925;80;21666;-65
2021/11/10 00:22:27;;;;;;;51.30;25.82;;;;;;;2.63;87.18;100424.30;2221000;80;20972;-65
2021/11/10 00:25:29;;;;;;;49.03;25.45;;;;;;;2.67;87.81;100439.38;2220736;80;20983;-65
2021/11/10 00:28:30;;;;;;;54.60;26.75;;;;;;;2.73;87.27;100440.23;2220478;80;21635;-65
2021/11/10 00:31:31;;;;;;;51.53;25.35;;;;;;;2.78;86.68;100435.88;2220677;80;20944;-65
2021/11/10 00:34:34;;;;;;;56.10;28.00;;;;;;;2.81;86.87;100440.64;2220469;80;21084;-65
2021/11/10 00:37:36;;;;;;;59.42;28.32;;;;;;;2.82;86.48;100443.67;2220580;80;21047;-65
2021/11/10 00:40:37;;;;;;;55.50;27.30;;;;;;;2.87;86.51;100463.94;2220558;80;21571;-65
2021/11/10 00:43:39;;;;;;;52.78;27.37;;;;;;;2.88;86.51;100473.00;2220613;80;21032;-65
2021/11/10 00:46:40;;;;;;;58.78;27.85;;;;;;;2.99;86.71;100474.28;2220602;80;21871;-65
2021/11/10 00:49:41;;;;;;;55.17;28.50;;;;;;;3.02;86.12;100483.33;2220694;80;21024;-64
2021/11/10 00:52:43;;;;;;;59.88;29.20;;;;;;;3.07;86.05;100477.68;2220577;80;21068;-65
2021/11/10 00:55:44;;;;;;;61.28;29.63;;;;;;;3.15;85.85;100478.08;2220499;80;21084;-65
2021/11/10 00:58:46;;;;;;;61.77;29.98;;;;;;;3.25;85.56;100486.28;2220708;80;21092;-65
2021/11/10 01:01:47;;;;;;;69.17;30.10;;;;;;;3.32;85.21;100494.45;2220727;80;21044;-65
2021/11/10 01:04:49;;;;;;;58.80;29.10;;;;;;;3.28;85.11;100492.74;2220582;80;21032;-65
2021/11/10 01:07:50;;;;;;;64.25;29.35;;;;;;;3.30;84.98;100488.40;2220698;80;21094;-65
2021/11/10 01:10:52;;;;;;;64.12;30.23;;;;;;;3.27;84.90;100487.12;2220545;80;21067;-65
2021/11/10 01:13:53;;;;;;;65.47;31.65;;;;;;;3.24;84.84;100498.80;2220536;80;21563;-65
2021/11/10 01:16:55;;;;;;;63.02;30.10;;;;;;;3.21;85.17;100493.19;2220555;80;21056;-64
2021/11/10 01:19:56;;;;;;;65.63;31.30;;;;;;;3.32;85.22;100482.78;2220526;80;21615;-65
2021/11/10 01:22:58;;;;;;;65.52;32.03;;;;;;;3.31;84.97;100473.27;2220195;80;21817;-65
2021/11/10 01:25:59;;;;;;;64.67;30.83;;;;;;;3.39;85.15;100457.24;2220459;80;21071;-65
2021/11/10 01:29:01;;;;;;;68.75;32.73;;;;;;;3.39;85.15;100457.24;2220629;80;21758;-65
2021/11/10 01:32:02;;;;;;;64.05;31.37;;;;;;;3.42;84.90;100462.82;2220554;80;21032;-65
2021/11/10 01:35:04;;;;;;;60.45;30.52;;;;;;;3.39;85.08;100455.95;2220478;80;21595;-65
2021/11/10 01:38:05;;;;;;;61.08;30.00;;;;;;;3.40;85.12;100450.31;2220547;80;21024;-66
2021/11/10 01:41:08;;;;;;;63.75;31.45;;;;;;;3.38;85.31;100437.80;2220541;80;21534;-65
2021/11/10 01:44:10;;;;;;;62.20;28.67;;;;;;;3.39;85.40;100433.02;2220551;80;21040;-65
2021/11/10 01:47:11;;;;;;;57.20;27.07;;;;;;;3.36;85.50;100414.88;2220670;80;21011;-65
2021/11/10 01:50:13;;;;;;;53.15;26.35;;;;;;;3.30;85.84;100410.59;2220445;80;21100;-65
2021/11/10 01:53:14;;;;;;;55.60;26.62;;;;;;;3.25;85.80;100404.59;2220511;80;21594;-65
2021/11/10 01:56:17;;;;;;;53.78;26.12;;;;;;;3.31;86.09;100417.51;2220560;80;21032;-65
2021/11/10 01:59:19;;;;;;;53.55;26.12;;;;;;;3.41;86.04;100420.91;2220744;80;20981;-65
2021/11/10 02:02:24;;;;;;;55.30;26.25;;;;;;;3.47;85.89;100428.20;2220540;80;21075;-65
2021/11/10 02:05:24;;;;;;;53.00;25.75;;;;;;;3.58;86.00;100422.11;2190487;80;21514;-65
2021/11/10 02:08:25;;;;;;;51.88;25.85;;;;;;;3.60;85.47;100419.91;2220979;80;21036;-65
2021/11/10 02:11:26;;;;;;;50.03;24.92;;;;;;;3.61;85.43;100419.04;2220735;80;21028;-64
2021/11/10 02:14:28;;;;;;;49.93;23.57;;;;;;;3.57;85.15;100416.03;2220832;80;21008;-65
2021/11/10 02:17:29;;;;;;;49.97;24.30;;;;;;;3.52;85.14;100407.86;2220802;80;21091;-65
2021/11/10 02:20:31;;;;;;;47.48;23.42;;;;;;;3.52;85.14;100407.86;2220508;80;22295;-65
2021/11/10 02:23:33;;;;;;;48.58;23.30;;;;;;;3.53;85.38;100403.10;2220859;80;21068;-65
2021/11/10 02:26:34;;;;;;;49.67;25.02;;;;;;;3.58;85.52;100405.24;2220950;80;21072;-65
2021/11/10 02:29:36;;;;;;;52.60;24.07;;;;;;;3.57;85.47;100408.25;2221050;80;20950;-65
2021/11/10 02:32:38;;;;;;;48.68;24.12;;;;;;;3.69;85.44;100416.83;2221124;80;21075;-65
2021/11/10 02:35:39;;;;;;;49.23;23.73;;;;;;;3.69;85.16;100429.35;2221049;80;21027;-65
2021/11/10 02:38:40;;;;;;;48.60;23.20;;;;;;;3.72;85.17;100425.47;2220944;80;21123;-65
2021/11/10 02:41:46;;;;;;;46.98;24.37;;;;;;;3.70;85.00;100432.83;2221095;80;21003;-65
2021/11/10 02:44:45;;;;;;;50.23;24.50;;;;;;;3.68;84.99;100431.55;2192781;80;21071;-65
2021/11/10 02:47:47;;;;;;;52.20;25.70;;;;;;;3.67;85.00;100427.66;2220987;80;20945;-65
2021/11/10 02:50:48;;;;;;;49.98;25.27;;;;;;;3.66;85.03;100428.53;2221213;80;20945;-65
2021/11/10 02:53:50;;;;;;;51.30;26.27;;;;;;;3.69;85.14;100425.91;2220847;80;21131;-65
2021/11/10 02:56:51;;;;;;;46.10;23.42;;;;;;;3.74;85.14;100434.53;2221066;80;21023;-65
2021/11/10 02:59:53;;;;;;;50.63;25.12;;;;;;;3.80;84.83;100422.80;2220923;80;21079;-65
2021/11/10 03:02:54;;;;;;;47.73;23.30;;;;;;;3.86;84.94;100420.15;2221082;80;21404;-65
2021/11/10 03:05:56;;;;;;;50.45;23.57;;;;;;;3.81;84.77;100420.19;2220959;80;21040;-65
2021/11/10 03:08:57;;;;;;;47.98;23.57;;;;;;;3.84;84.57;100419.31;2220907;80;21558;-65
2021/11/10 03:11:59;;;;;;;46.15;23.25;;;;;;;3.83;84.35;100410.24;2220781;80;21087;-65
2021/11/10 03:15:01;;;;;;;50.05;22.77;;;;;;;3.79;84.94;100422.36;2220902;80;21119;-65
2021/11/10 03:18:02;;;;;;;47.58;23.27;;;;;;;3.89;84.75;100429.66;2220922;80;21013;-65
2021/11/10 03:21:04;;;;;;;46.25;22.52;;;;;;;3.83;84.56;100411.09;2220668;80;21064;-65
2021/11/10 03:24:06;;;;;;;45.15;22.93;;;;;;;3.84;84.35;100426.25;2220472;80;21072;-65
2021/11/10 03:27:07;;;;;;;47.90;23.70;;;;;;;3.84;84.53;100427.09;2220805;80;21539;-65
2021/11/10 03:30:08;;;;;;;46.28;22.65;;;;;;;3.83;84.27;100420.63;2220775;80;20983;-65
2021/11/10 03:33:10;;;;;;;44.73;22.32;;;;;;;3.84;84.51;100417.16;2220795;80;21039;-65
2021/11/10 03:36:11;;;;;;;45.33;21.60;;;;;;;3.82;84.41;100417.15;2221044;80;20987;-65
2021/11/10 03:39:13;;;;;;;46.57;22.07;;;;;;;3.77;84.21;100416.34;2220913;80;21091;-65
2021/11/10 03:42:15;;;;;;;43.65;20.92;;;;;;;3.77;84.21;100416.34;2220766;80;21564;-65
2021/11/10 03:45:16;;;;;;;43.27;20.50;;;;;;;3.69;84.17;100409.89;2221040;80;21028;-66
2021/11/10 03:48:18;;;;;;;42.58;19.92;;;;;;;3.61;84.24;100411.25;2220795;80;21562;-65
2021/11/10 03:51:19;;;;;;;42.90;20.68;;;;;;;3.55;84.27;100414.31;2220821;80;21076;-65
2021/11/10 03:54:21;;;;;;;40.43;20.77;;;;;;;3.58;84.53;100403.95;2220875;80;21618;-65
2021/11/10 03:57:22;;;;;;;39.98;18.92;;;;;;;3.56;84.45;100396.17;2221102;80;20988;-64
2021/11/10 04:00:23;;;;;;;39.40;18.75;;;;;;;3.52;84.22;100401.37;2220958;80;20995;-65
2021/11/10 04:03:25;;;;;;;36.95;17.95;;;;;;;3.45;84.15;100386.30;2220993;80;21071;-66
2021/11/10 04:06:30;;;;;;;39.25;18.75;;;;;;;3.37;84.03;100389.37;2221092;80;21079;-65
2021/11/10 04:09:32;;;;;;;38.33;18.05;;;;;;;3.23;84.18;100381.25;2220845;80;21553;-65
2021/11/10 04:12:34;;;;;;;40.83;18.62;;;;;;;3.14;84.45;100382.59;2220986;80;21043;-65
2021/11/10 04:15:35;;;;;;;39.80;18.85;;;;;;;3.10;84.65;100379.58;2220950;80;21119;-64
2021/11/10 04:18:36;;;;;;;37.25;18.37;;;;;;;3.01;84.62;100371.42;2221062;80;20976;-65
2021/11/10 04:21:38;;;;;;;36.38;18.40;;;;;;;2.97;84.86;100363.67;2211932;80;21008;-65
2021/11/10 04:24:39;;;;;;;38.70;18.70;;;;;;;2.89;84.72;100352.91;2210473;81;20972;-65
2021/11/10 04:27:41;;;;;;;38.10;18.65;;;;;;;2.86;85.05;100350.34;2210360;81;21012;-65
2021/11/10 04:30:42;;;;;;;41.05;19.75;;;;;;;2.92;84.82;100349.45;2210296;81;21015;-66
2021/11/10 04:33:44;;;;;;;37.93;18.30;;;;;;;2.95;84.99;100345.09;2210157;81;21035;-65
2021/11/10 04:36:46;;;;;;;38.20;18.23;;;;;;;2.97;84.79;100343.79;2210443;81;21473;-65
2021/11/10 04:39:47;;;;;;;37.60;18.27;;;;;;;3.01;84.99;100330.39;2210304;81;21032;-65
2021/11/10 04:42:49;;;;;;;38.80;18.90;;;;;;;2.98;84.67;100336.45;2210347;81;21474;-65
2021/11/10 04:45:59;;;;;;;38.35;18.87;;;;;;;2.95;84.75;100331.29;2210334;81;21361;-65
2021/11/10 04:48:54;;;;;;;39.83;19.20;;;;;;;3.02;84.82;100329.53;2188870;81;20957;-65
2021/11/10 04:51:56;;;;;;;;;;;;;;;3.03;84.65;100326.05;2213241;81;20946;-66
2021/11/10 04:54:57;;;;;;;39.35;18.40;;;;;;;3.06;84.65;100332.50;2210415;80;20112;-65
2021/11/10 04:57:59;;;;;;;38.23;17.42;;;;;;;3.09;84.66;100334.66;2210555;81;20984;-65
2021/11/10 05:01:01;;;;;;;39.80;18.15;;;;;;;3.12;84.55;100342.86;2210235;81;21324;-65
2021/11/10 05:04:04;;;;;;;36.55;18.05;;;;;;;3.12;84.42;100344.16;2210558;81;20941;-65
2021/11/10 05:07:06;;;;;;;40.50;18.73;;;;;;;3.21;84.54;100341.48;2188878;81;21024;-65
2021/11/10 05:10:07;;;;;;;37.98;18.15;;;;;;;3.29;84.22;100339.71;2210397;81;20980;-66
2021/11/10 05:13:08;;;;;;;37.88;18.75;;;;;;;3.23;83.80;100337.59;2210575;81;21001;-65
2021/11/10 05:16:10;;;;;;;36.73;18.55;;;;;;;3.12;83.98;100331.19;2210399;81;21011;-65
2021/11/10 05:19:11;;;;;;;34.58;17.90;;;;;;;3.14;84.03;100324.25;2210520;81;21020;-65
2021/11/10 05:22:13;;;;;;;34.95;17.23;;;;;;;3.17;83.95;100331.16;2219923;80;20985;-65
2021/11/10 05:25:14;;;;;;;36.28;18.15;;;;;;;3.20;83.91;100337.61;2220704;80;21558;-66
2021/11/10 05:28:16;;;;;;;39.30;18.10;;;;;;;3.21;83.83;100330.27;2220457;80;21123;-65
2021/11/10 05:31:17;;;;;;;36.45;18.07;;;;;;;3.13;83.36;100325.11;2220695;80;21539;-65
2021/11/10 05:34:19;;;;;;;37.88;17.10;;;;;;;3.01;83.65;100328.65;2220581;80;21531;-66
2021/11/10 05:37:21;;;;;;;36.80;17.25;;;;;;;3.04;83.80;100320.84;2220793;80;21058;-65
2021/11/10 05:40:22;;;;;;;33.08;16.30;;;;;;;2.95;83.48;100324.80;2220314;80;21068;-65
2021/11/10 05:43:23;;;;;;;36.40;16.97;;;;;;;2.84;83.59;100325.30;2220931;80;21056;-65
2021/11/10 05:46:25;;;;;;;36.38;16.93;;;;;;;2.67;83.56;100320.19;2220665;80;21045;-65
2021/11/10 05:49:27;;;;;;;34.85;17.02;;;;;;;2.60;83.87;100324.12;2220615;80;21084;-65
2021/11/10 05:52:28;;;;;;;33.10;16.25;;;;;;;2.59;83.99;100327.56;2220550;80;21032;-65
2021/11/10 05:55:30;;;;;;;35.30;17.50;;;;;;;2.60;84.05;100334.48;2220416;80;21622;-65
2021/11/10 05:58:33;;;;;;;35.17;16.53;;;;;;;2.61;83.76;100335.33;2220792;80;21068;-65
2021/11/10 06:01:34;;;;;;;36.10;16.55;;;;;;;2.61;83.74;100335.33;2220663;80;21071;-65
2021/11/10 06:04:36;;;;;;;34.08;16.45;;;;;;;2.56;83.46;100336.66;2220551;80;21032;-65
2021/11/10 06:07:37;;;;;;;32.98;15.72;;;;;;;2.50;83.44;100336.69;2220523;80;21068;-65
2021/11/10 06:10:39;;;;;;;36.88;16.25;;;;;;;2.41;83.36;100334.99;2220499;80;21044;-65
2021/11/10 06:13:40;;;;;;;34.18;15.78;;;;;;;2.29;83.25;100341.94;2220506;80;21091;-65
2021/11/10 06:16:42;;;;;;;38.85;17.60;;;;;;;2.22;83.59;100339.79;2220488;80;21052;-65
2021/11/10 06:19:43;;;;;;;37.00;18.90;;;;;;;2.17;83.66;100347.58;2220418;80;21563;-65
2021/11/10 06:22:44;;;;;;;34.60;16.65;;;;;;;2.21;83.89;100348.00;2220499;80;21040;-65
2021/11/10 06:25:46;;;;;;;33.35;16.05;;;;;;;2.22;83.76;100355.33;2220417;80;21578;-65
2021/11/10 06:28:48;;;;;;;32.65;14.98;;;;;;;2.20;83.96;100354.03;2220608;80;21028;-65
2021/11/10 06:31:49;;;;;;;34.40;14.70;;;;;;;2.20;83.71;100350.16;2220641;80;21052;-65
2021/11/10 06:34:51;;;;;;;35.15;15.30;;;;;;;2.18;83.73;100346.69;2220579;80;21134;-65
2021/11/10 06:37:52;;;;;;;32.95;16.02;;;;;;;2.28;84.18;100343.64;2220498;80;21040;-65
2021/11/10 06:40:53;;;;;;;34.43;17.32;;;;;;;2.38;83.86;100345.34;2220717;80;21026;-65
2021/11/10 06:43:55;;;;;;;35.63;16.20;;;;;;;2.39;83.87;100351.40;2220504;80;21032;-65
2021/11/10 06:46:59;;;;;;;32.60;15.35;;;;;;;2.49;83.81;100350.94;2220508;80;21047;-66
2021/11/10 06:50:01;;;;;;;34.55;15.48;;;;;;;2.51;83.80;100343.56;2190321;80;21012;-66
2021/11/10 06:53:02;;;;;;;;;;;;;;;2.60;83.65;100342.25;2223230;80;21035;-64
2021/11/10 06:56:04;;;;;;;32.85;14.87;;;;;;;2.54;83.67;100342.28;2220599;80;20129;-65
2021/11/10 06:59:05;;;;;;;31.25;15.38;;;;;;;2.55;83.61;100342.69;2220579;80;21047;-65
2021/11/10 07:02:07;;;;;;;30.72;14.43;;;;;;;2.51;83.66;100345.30;2220874;80;21028;-65
2021/11/10 07:05:09;;;;;;;36.33;16.10;;;;;;;2.54;83.80;100347.47;2220629;80;21040;-66
2021/11/10 07:08:10;;;;;;;34.50;16.60;;;;;;;2.63;83.86;100336.20;2220705;80;21059;-65
2021/11/10 07:11:12;;;;;;;35.23;16.03;;;;;;;2.62;83.26;100329.73;2220869;80;21079;-65
2021/11/10 07:14:13;;;;;;;35.60;16.60;;;;;;;2.57;83.38;100329.31;2220566;80;21578;-65
2021/11/10 07:17:16;;;;;;;38.05;16.10;;;;;;;2.62;83.44;100334.47;2220657;80;21147;-65
2021/11/10 07:20:18;;;;;;;35.05;15.35;;;;;;;2.61;83.62;100330.15;2219579;80;21084;-65
2021/11/10 07:23:19;;;;;;;33.73;15.25;;;;;;;2.67;83.53;100323.67;2210334;81;21021;-66
2021/11/10 07:26:21;;;;;;;32.28;15.72;;;;;;;2.81;83.63;100323.58;2210410;81;21004;-65
2021/11/10 07:29:22;;;;;;;33.85;16.42;;;;;;;2.83;83.22;100323.16;2210285;81;20969;-65
